History for KNYNEWYO643

Manhattan, New York City, NY — Current Conditions
Daily Summary for August 22, 2017
  Current: High: Low: Average:
Temperature: 78.8°F 78.8°F 77.7°F 78.2°F
Dew Point: 66.7°F 66.7°F 63.8°F 64.5°F
Humidity: 66% 66% 61% 62%
Wind Speed: - 0.0mph - 0.0mph
Wind Gust: - 0.0mph - -
Wind: North - - North
Pressure: 29.81in 30.11in 29.81in -
Precipitation: 0.00in      
Statistics for the rest of the month
    High: Low: Average:
Temperature:   78.8°F 71.8°F 75.6°F
Dew Point:   66.7°F 55.2°F 61.2°F
Humidity:   66.0% 55.0% 60.2%
Wind Speed:   0.0mph from the North - 0.0mph
Wind Gust:   0.0mph from the North - -
Wind:   - - North
Pressure:   30.25in 29.77in -
Precipitation:   0.00in    
KNYNEWYO643 Weather Graph
Tabular Data for August 22, 2017
Time Temp. Dew Point Pressure Wind Gust Humidity Rainfall
00:12 78.3°F 64.0°F 30.11in - 61% -
00:33 78.1°F 63.8°F 30.11in - 61% -
00:43 78.1°F 63.8°F 30.10in - 61% -
01:03 78.1°F 63.8°F 30.10in - 61% -
01:13 78.1°F 63.8°F 30.10in - 61% -
01:33 78.1°F 63.8°F 30.09in - 61% -
01:43 78.1°F 63.8°F 30.08in - 61% -
02:03 78.1°F 63.8°F 30.08in - 61% -
02:13 78.1°F 63.8°F 30.07in - 61% -
02:33 78.1°F 63.8°F 30.07in - 61% -
02:43 78.1°F 63.8°F 30.07in - 61% -
03:04 78.1°F 63.8°F 30.07in - 61% -
03:14 78.1°F 63.8°F 30.06in - 61% -
03:34 78.1°F 63.8°F 30.05in - 61% -
03:44 78.1°F 63.8°F 30.05in - 61% -
04:14 78.1°F 63.8°F 30.05in - 61% -
04:34 78.1°F 64.3°F 30.04in - 62% -
04:44 77.9°F 64.1°F 30.04in - 62% -
05:05 77.9°F 64.1°F 30.04in - 62% -
05:15 77.9°F 64.1°F 30.04in - 62% -
05:35 77.9°F 64.1°F 30.04in - 62% -
05:45 77.9°F 64.1°F 30.04in - 62% -
06:05 77.9°F 64.1°F 30.04in - 62% -
06:15 77.9°F 64.1°F 30.04in - 62% -
06:35 77.9°F 64.1°F 30.04in - 62% -
06:45 77.9°F 64.1°F 30.04in - 62% -
07:06 77.9°F 64.1°F 30.04in - 62% -
07:16 77.9°F 64.1°F 30.03in - 62% -
07:46 77.9°F 64.1°F 30.04in - 62% -
08:16 77.9°F 64.1°F 30.03in - 62% -
08:36 77.7°F 63.9°F 30.03in - 62% -
08:46 77.7°F 63.9°F 30.03in - 62% -
09:06 77.7°F 63.9°F 30.02in - 62% -
09:17 77.7°F 63.9°F 30.02in - 62% -
09:37 77.9°F 64.5°F 30.01in - 63% -
09:47 77.9°F 64.5°F 30.01in - 63% -
10:17 77.9°F 64.5°F 30.01in - 63% -
10:47 78.1°F 64.7°F 30.00in - 63% -
11:17 78.1°F 64.7°F 30.00in - 63% -
11:48 78.1°F 64.7°F 29.98in - 63% -
12:18 78.1°F 64.7°F 29.96in - 63% -
12:48 78.3°F 65.3°F 29.96in - 64% -
13:18 78.3°F 65.3°F 29.95in - 64% -
13:49 78.3°F 65.3°F 29.93in - 64% -
14:19 78.4°F 65.9°F 29.91in - 65% -
14:49 78.6°F 66.1°F 29.89in - 65% -
15:19 78.6°F 66.1°F 29.87in - 65% -
15:49 78.6°F 66.1°F 29.85in - 65% -
16:10 78.6°F 66.5°F 29.84in - 66% -
16:40 78.6°F 66.5°F 29.83in - 66% -
17:10 78.6°F 66.5°F 29.83in - 66% -
17:40 78.8°F 66.7°F 29.81in - 66% -
Comma Delimited File
Powered by Weather Underground, Inc.